createdAt,value
2023-09-14T00:01:29.155Z,14.07
2023-09-14T00:04:35.519Z,12.95
2023-09-14T00:07:43.366Z,11.95
2023-09-14T00:10:49.918Z,12.18
2023-09-14T00:13:56.618Z,13.25
2023-09-14T00:17:03.492Z,12.00
2023-09-14T00:20:09.326Z,12.07
2023-09-14T00:23:15.279Z,12.05
2023-09-14T00:26:22.206Z,12.35
2023-09-14T00:29:27.522Z,12.60
2023-09-14T00:32:32.482Z,11.95
2023-09-14T00:35:39.945Z,11.68
2023-09-14T00:38:46.635Z,12.37
2023-09-14T00:41:53.194Z,10.40
2023-09-14T00:44:59.976Z,11.80
2023-09-14T00:48:10.099Z,10.85
2023-09-14T00:51:18.148Z,12.28
2023-09-14T00:54:24.510Z,11.70
2023-09-14T00:57:31.885Z,11.25
2023-09-14T01:00:39.153Z,10.65
2023-09-14T01:03:45.153Z,11.75
2023-09-14T01:06:52.051Z,10.58
2023-09-14T01:09:58.502Z,10.82
2023-09-14T01:13:07.253Z,12.07
2023-09-14T01:16:33.373Z,10.70
2023-09-14T01:19:58.667Z,9.83
2023-09-14T01:23:18.336Z,10.82
2023-09-14T01:26:23.896Z,10.53
2023-09-14T01:29:30.568Z,11.63
2023-09-14T01:32:36.565Z,11.70
2023-09-14T01:35:45.667Z,10.72
2023-09-14T01:38:50.801Z,11.88
2023-09-14T01:41:58.191Z,11.03
2023-09-14T01:45:05.469Z,10.05
2023-09-14T01:48:12.362Z,10.48
2023-09-14T01:51:18.418Z,9.60
2023-09-14T01:54:23.898Z,10.13
2023-09-14T01:57:28.910Z,10.58
2023-09-14T02:00:34.693Z,10.13
2023-09-14T02:03:40.824Z,11.20
2023-09-14T02:06:48.269Z,10.82
2023-09-14T02:09:54.583Z,11.22
2023-09-14T02:13:01.283Z,11.05
2023-09-14T02:16:08.200Z,10.18
2023-09-14T02:19:15.447Z,10.85
2023-09-14T02:22:22.518Z,9.98
2023-09-14T02:25:29.417Z,10.32
2023-09-14T02:28:35.559Z,11.25
2023-09-14T02:31:41.982Z,10.60
2023-09-14T02:34:49.227Z,10.18
2023-09-14T02:37:56.619Z,11.30
2023-09-14T02:41:01.764Z,10.28
2023-09-14T02:44:08.731Z,10.25
2023-09-14T02:47:15.192Z,10.18
2023-09-14T02:50:21.684Z,9.43
2023-09-14T02:53:28.869Z,9.78
2023-09-14T02:56:35.537Z,10.03
2023-09-14T02:59:41.300Z,10.35
2023-09-14T03:02:48.739Z,10.95
2023-09-14T03:05:56.584Z,9.93
2023-09-14T03:09:03.764Z,10.98
2023-09-14T03:12:11.099Z,10.93
2023-09-14T03:15:17.594Z,10.90
2023-09-14T03:18:23.797Z,9.95
2023-09-14T03:21:43.944Z,10.70
2023-09-14T03:24:50.622Z,9.10
2023-09-14T03:27:57.481Z,10.53
2023-09-14T03:31:03.802Z,10.95
2023-09-14T03:34:10.315Z,10.68
2023-09-14T03:37:16.958Z,10.58
2023-09-14T03:40:22.923Z,10.23
2023-09-14T03:43:29.908Z,9.80
2023-09-14T03:46:36.383Z,11.63
2023-09-14T03:49:43.362Z,12.13
2023-09-14T03:52:50.051Z,13.60
2023-09-14T03:55:56.214Z,13.62
2023-09-14T03:59:04.516Z,11.80
2023-09-14T04:02:11.195Z,11.12
2023-09-14T04:05:30.762Z,11.08
2023-09-14T04:08:37.759Z,12.20
2023-09-14T04:11:42.785Z,12.25
2023-09-14T04:14:52.661Z,12.35
2023-09-14T04:17:59.343Z,14.05
2023-09-14T04:21:06.646Z,13.75
2023-09-14T04:24:12.699Z,13.78
2023-09-14T04:27:18.492Z,12.47
2023-09-14T04:30:24.671Z,11.85
2023-09-14T04:33:31.422Z,12.78
2023-09-14T04:36:39.107Z,13.18
2023-09-14T04:39:46.184Z,13.48
2023-09-14T04:42:51.453Z,11.20
2023-09-14T04:46:00.551Z,10.68
2023-09-14T04:49:07.354Z,11.12
2023-09-14T04:52:12.473Z,10.40
2023-09-14T04:55:18.708Z,10.70
2023-09-14T04:58:26.750Z,10.70
2023-09-14T05:01:33.360Z,10.30
2023-09-14T05:04:41.013Z,11.45
2023-09-14T05:07:48.862Z,10.80
2023-09-14T05:10:57.103Z,11.15
2023-09-14T05:14:03.353Z,10.58
2023-09-14T05:17:08.708Z,11.43
2023-09-14T05:20:16.701Z,10.75
2023-09-14T05:23:22.966Z,10.35
2023-09-14T05:26:27.929Z,10.15
2023-09-14T05:29:34.232Z,9.58
2023-09-14T05:32:39.640Z,10.45
2023-09-14T05:35:46.644Z,9.63
2023-09-14T05:38:54.839Z,9.88
2023-09-14T05:42:00.006Z,9.28
2023-09-14T05:45:06.080Z,8.38
2023-09-14T05:48:15.973Z,8.68
2023-09-14T05:51:21.799Z,8.78
2023-09-14T05:54:28.290Z,7.95
2023-09-14T05:57:33.893Z,8.18
2023-09-14T06:00:40.454Z,8.45
2023-09-14T06:03:47.595Z,8.28
2023-09-14T06:06:54.673Z,8.03
2023-09-14T06:10:01.249Z,8.45
2023-09-14T06:13:07.403Z,8.05
2023-09-14T06:16:13.701Z,7.33
2023-09-14T06:19:20.562Z,8.08
2023-09-14T06:22:27.303Z,7.87
2023-09-14T06:25:33.749Z,7.70
2023-09-14T06:28:40.097Z,7.65
2023-09-14T06:31:46.128Z,7.78
2023-09-14T06:34:51.708Z,7.58
2023-09-14T06:37:57.555Z,7.17
2023-09-14T06:41:04.185Z,7.22
2023-09-14T06:44:13.253Z,7.37
2023-09-14T06:47:19.046Z,6.75
2023-09-14T06:50:25.370Z,6.70
2023-09-14T06:53:31.448Z,6.65
2023-09-14T06:56:37.719Z,7.00
2023-09-14T06:59:43.545Z,7.58
2023-09-14T07:02:49.400Z,6.92
2023-09-14T07:05:56.527Z,7.65
2023-09-14T07:09:05.543Z,7.03
2023-09-14T07:12:14.583Z,6.55
2023-09-14T07:15:21.175Z,6.33
2023-09-14T07:18:45.287Z,6.20
2023-09-14T07:21:51.514Z,6.67
2023-09-14T07:24:58.807Z,6.28
2023-09-14T07:28:05.719Z,10.78
2023-09-14T07:31:12.549Z,7.35
2023-09-14T07:34:19.828Z,6.97
2023-09-14T07:37:27.637Z,7.12
2023-09-14T07:40:33.713Z,5.87
2023-09-14T07:43:41.530Z,6.62
2023-09-14T07:46:48.198Z,6.40
2023-09-14T07:49:55.412Z,6.53
2023-09-14T07:53:00.717Z,6.45
2023-09-14T07:56:08.099Z,6.17
2023-09-14T07:59:07.139Z,6.10
2023-09-14T08:02:16.739Z,6.80
2023-09-14T08:05:23.865Z,5.90
2023-09-14T08:08:29.859Z,6.45
2023-09-14T08:11:35.464Z,6.08
2023-09-14T08:14:43.706Z,5.45
2023-09-14T08:17:49.152Z,5.92
2023-09-14T08:20:56.044Z,5.65
2023-09-14T08:24:04.783Z,5.53
2023-09-14T08:27:10.510Z,5.37
2023-09-14T08:30:19.834Z,5.35
2023-09-14T08:33:25.877Z,5.33
2023-09-14T08:36:34.190Z,5.03
2023-09-14T08:39:39.131Z,5.78
2023-09-14T08:42:48.458Z,5.87
2023-09-14T08:45:54.411Z,5.30
2023-09-14T08:49:01.595Z,5.47
2023-09-14T08:52:08.901Z,5.05
2023-09-14T08:55:17.072Z,5.05
2023-09-14T08:58:22.594Z,4.95
2023-09-14T09:01:30.962Z,5.20
2023-09-14T09:04:38.623Z,5.05
2023-09-14T09:07:44.363Z,5.87
2023-09-14T09:10:50.214Z,11.22
2023-09-14T09:14:00.354Z,6.00
2023-09-14T09:17:06.339Z,5.05
2023-09-14T09:20:12.901Z,4.83
2023-09-14T09:23:19.532Z,7.10
2023-09-14T09:26:25.676Z,6.42
2023-09-14T09:29:37.013Z,5.67
2023-09-14T09:32:44.015Z,5.97
2023-09-14T09:35:52.010Z,6.08
2023-09-14T09:38:57.664Z,5.37
2023-09-14T09:42:02.408Z,6.60
2023-09-14T09:45:12.541Z,6.20
2023-09-14T09:48:19.335Z,6.25
2023-09-14T09:51:25.161Z,6.05
2023-09-14T09:54:36.819Z,5.80
2023-09-14T10:00:52.650Z,5.47
2023-09-14T10:04:01.842Z,5.62
2023-09-14T10:07:10.593Z,5.85
2023-09-14T10:10:17.139Z,5.60
2023-09-14T10:13:24.730Z,5.50
2023-09-14T10:16:33.330Z,6.00
2023-09-14T10:19:41.624Z,5.40
2023-09-14T10:22:49.623Z,6.08
2023-09-14T10:25:56.929Z,5.37
2023-09-14T10:29:04.724Z,5.65
2023-09-14T10:32:14.803Z,5.83
2023-09-14T10:35:22.631Z,5.65
2023-09-14T10:38:30.074Z,5.72
2023-09-14T10:41:35.520Z,5.92
2023-09-14T10:44:43.675Z,5.95
2023-09-14T10:47:49.853Z,5.80
2023-09-14T10:50:56.080Z,5.72
2023-09-14T10:54:02.863Z,5.60
2023-09-14T10:57:16.349Z,5.62
2023-09-14T11:00:26.096Z,6.20
2023-09-14T11:03:33.484Z,6.15
2023-09-14T11:07:06.165Z,5.72
2023-09-14T11:10:21.449Z,5.72
2023-09-14T11:13:40.808Z,5.45
2023-09-14T11:17:02.939Z,6.22
2023-09-14T11:20:09.886Z,5.60
2023-09-14T11:23:18.114Z,6.22
2023-09-14T11:26:26.041Z,5.70
2023-09-14T11:29:34.568Z,5.53
2023-09-14T11:32:44.725Z,5.53
2023-09-14T11:35:56.972Z,5.47
2023-09-14T11:39:08.581Z,5.87
2023-09-14T11:42:15.792Z,6.00
2023-09-14T11:45:24.574Z,6.25
2023-09-14T11:51:39.284Z,6.05
2023-09-14T11:54:47.368Z,6.42
2023-09-14T11:57:55.810Z,6.30
2023-09-14T12:01:05.605Z,6.90
2023-09-14T12:04:13.552Z,6.85
2023-09-14T12:07:19.989Z,7.40
2023-09-14T12:10:35.454Z,6.33
2023-09-14T12:13:41.463Z,6.75
2023-09-14T12:16:46.863Z,6.90
2023-09-14T12:20:03.952Z,6.78
2023-09-14T12:23:08.799Z,6.12
2023-09-14T12:26:15.282Z,6.50
2023-09-14T12:29:20.910Z,6.30
2023-09-14T12:32:27.878Z,6.30
2023-09-14T12:35:33.380Z,6.28
2023-09-14T12:38:47.178Z,6.87
2023-09-14T12:41:48.424Z,6.97
2023-09-14T12:44:54.141Z,6.53
2023-09-14T12:48:04.229Z,7.25
2023-09-14T12:51:10.402Z,6.72
2023-09-14T12:54:18.282Z,7.20
2023-09-14T12:57:31.144Z,6.20
2023-09-14T13:00:44.769Z,6.58
2023-09-14T13:03:51.979Z,6.60
2023-09-14T13:06:58.320Z,8.10
2023-09-14T13:10:04.493Z,6.12
2023-09-14T13:13:32.175Z,6.65
2023-09-14T13:16:38.617Z,6.05
2023-09-14T13:19:46.602Z,6.53
2023-09-14T13:22:53.580Z,6.67
2023-09-14T13:25:58.652Z,6.20
2023-09-14T13:29:06.169Z,5.85
2023-09-14T13:32:12.199Z,6.60
2023-09-14T13:35:21.553Z,7.58
2023-09-14T13:38:25.755Z,7.03
2023-09-14T13:41:32.212Z,6.85
2023-09-14T13:44:38.724Z,7.60
2023-09-14T13:47:44.704Z,6.40
2023-09-14T13:50:50.447Z,6.47
2023-09-14T13:53:58.450Z,7.20
2023-09-14T13:57:04.497Z,7.53
2023-09-14T14:00:13.244Z,8.08
2023-09-14T14:03:28.339Z,8.30
2023-09-14T14:06:35.466Z,7.67
2023-09-14T14:09:44.609Z,7.87
2023-09-14T14:12:51.270Z,8.63
2023-09-14T14:15:58.122Z,8.20
2023-09-14T14:19:04.373Z,6.95
2023-09-14T14:22:10.954Z,7.22
2023-09-14T14:25:16.028Z,7.17
2023-09-14T14:42:29.743Z,6.80
2023-09-14T14:45:37.085Z,7.25
2023-09-14T14:48:46.156Z,8.15
2023-09-14T14:51:52.682Z,7.00
2023-09-14T14:54:58.620Z,6.87
2023-09-14T14:58:04.302Z,7.08
2023-09-14T15:01:10.736Z,8.48
2023-09-14T15:04:17.340Z,6.67
2023-09-14T15:07:25.447Z,6.40
2023-09-14T15:10:29.856Z,6.97
2023-09-14T15:13:35.522Z,7.42
2023-09-14T15:16:43.041Z,7.40
2023-09-14T15:19:51.345Z,7.78
2023-09-14T15:22:57.279Z,8.53
2023-09-14T15:26:04.874Z,8.70
2023-09-14T15:29:10.857Z,8.63
2023-09-14T15:32:16.920Z,11.05
2023-09-14T15:35:25.262Z,11.30
2023-09-14T15:38:31.743Z,10.32
2023-09-14T15:41:39.203Z,10.58
2023-09-14T15:44:47.808Z,11.10
2023-09-14T15:47:52.503Z,8.60
2023-09-14T15:50:58.326Z,7.70
2023-09-14T15:54:04.878Z,7.62
2023-09-14T15:57:12.024Z,7.67
2023-09-14T16:00:19.750Z,8.38
2023-09-14T16:03:27.718Z,8.78
2023-09-14T16:06:35.438Z,20.88
2023-09-14T16:09:41.536Z,43.90
2023-09-14T16:12:50.383Z,36.17
2023-09-14T16:16:01.605Z,23.07
2023-09-14T16:19:07.836Z,10.82
2023-09-14T16:22:16.023Z,9.93
2023-09-14T16:25:22.324Z,8.93
2023-09-14T16:28:31.003Z,9.20
2023-09-14T16:31:41.909Z,9.88
2023-09-14T16:34:47.434Z,9.83
2023-09-14T16:37:54.090Z,10.20
2023-09-14T16:41:08.491Z,9.25
2023-09-14T16:44:14.471Z,9.80
2023-09-14T16:47:19.740Z,10.93
2023-09-14T16:50:24.565Z,10.15
2023-09-14T16:53:31.195Z,10.68
2023-09-14T16:56:37.393Z,10.65
2023-09-14T16:59:44.617Z,10.98
2023-09-14T17:02:50.111Z,11.68
2023-09-14T17:05:57.114Z,11.50
2023-09-14T17:09:04.784Z,12.78
2023-09-14T17:12:12.006Z,14.07
2023-09-14T17:15:16.966Z,11.60
2023-09-14T17:18:24.570Z,22.37
2023-09-14T17:21:31.917Z,20.48
2023-09-14T17:24:37.221Z,19.15
2023-09-14T17:27:43.458Z,20.85
2023-09-14T17:30:50.930Z,19.57
2023-09-14T17:33:58.395Z,17.62
2023-09-14T17:37:06.678Z,17.82
2023-09-14T17:40:15.950Z,17.35
2023-09-14T17:43:23.248Z,14.95
2023-09-14T17:46:30.726Z,16.12
2023-09-14T17:49:38.695Z,16.17
2023-09-14T17:52:45.065Z,15.70
2023-09-14T17:55:50.401Z,14.35
2023-09-14T17:58:59.637Z,16.35
2023-09-14T18:02:07.587Z,18.30
2023-09-14T18:05:16.177Z,19.02
2023-09-14T18:08:21.913Z,23.80
2023-09-14T18:11:32.385Z,22.10
2023-09-14T18:14:38.810Z,19.90
2023-09-14T18:17:46.699Z,19.35
2023-09-14T18:20:52.861Z,21.10
2023-09-14T18:24:00.633Z,18.92
2023-09-14T18:27:07.127Z,20.27
2023-09-14T18:30:14.221Z,19.70
2023-09-14T18:33:21.971Z,20.35
2023-09-14T18:36:28.972Z,21.42
2023-09-14T18:39:36.136Z,22.50
2023-09-14T18:42:42.090Z,24.07
2023-09-14T18:45:51.113Z,22.80
2023-09-14T18:49:00.133Z,23.85
2023-09-14T18:52:06.039Z,20.37
2023-09-14T18:55:14.133Z,18.98
2023-09-14T18:58:44.115Z,18.05
2023-09-14T19:01:31.133Z,16.32
2023-09-14T19:04:37.835Z,14.93
2023-09-14T19:07:45.545Z,14.58
2023-09-14T19:10:51.603Z,14.43
2023-09-14T19:13:58.076Z,13.78
2023-09-14T19:17:04.501Z,13.75
2023-09-14T19:20:13.911Z,12.30
2023-09-14T19:23:20.923Z,11.40
2023-09-14T19:26:27.968Z,11.95
2023-09-14T19:29:33.920Z,10.65
2023-09-14T19:32:40.653Z,11.33
2023-09-14T19:35:46.380Z,9.65
2023-09-14T19:38:53.324Z,11.57
2023-09-14T19:42:03.002Z,11.83
2023-09-14T19:45:08.950Z,10.80
2023-09-14T19:48:15.360Z,14.90
2023-09-14T19:51:21.163Z,28.40
2023-09-14T19:54:27.834Z,31.85
2023-09-14T19:57:33.622Z,50.23
2023-09-14T20:00:39.839Z,66.57
2023-09-14T20:03:49.297Z,54.70
2023-09-14T20:06:56.623Z,53.08
2023-09-14T20:10:02.247Z,39.42
2023-09-14T20:13:08.277Z,32.83
2023-09-14T20:16:13.738Z,28.00
2023-09-14T20:19:21.670Z,28.32
2023-09-14T20:22:29.653Z,18.85
2023-09-14T20:25:37.763Z,14.70
2023-09-14T20:28:45.746Z,11.90
2023-09-14T20:31:51.124Z,10.05
2023-09-14T20:34:56.703Z,9.28
2023-09-14T20:38:03.956Z,8.53
2023-09-14T20:41:11.858Z,8.70
2023-09-14T20:44:17.712Z,9.53
2023-09-14T20:47:25.543Z,8.65
2023-09-14T20:50:31.982Z,8.45
2023-09-14T20:53:40.103Z,10.50
2023-09-14T20:56:48.811Z,11.28
2023-09-14T20:59:55.711Z,9.73
2023-09-14T21:03:01.984Z,9.70
2023-09-14T21:06:17.467Z,9.43
2023-09-14T21:09:24.319Z,8.95
2023-09-14T21:12:29.898Z,9.40
2023-09-14T21:15:38.078Z,9.18
2023-09-14T21:18:43.895Z,9.53
2023-09-14T21:21:50.199Z,8.60
2023-09-14T21:24:55.924Z,9.38
2023-09-14T21:28:02.581Z,8.90
2023-09-14T21:31:04.817Z,8.83
2023-09-14T21:34:10.404Z,8.90
2023-09-14T21:37:17.457Z,9.33
2023-09-14T21:40:25.152Z,8.45
2023-09-14T21:43:30.892Z,9.53
2023-09-14T21:46:36.985Z,8.75
2023-09-14T21:49:58.611Z,8.90
2023-09-14T21:53:06.238Z,9.15
2023-09-14T21:56:12.259Z,8.85
2023-09-14T21:59:18.719Z,9.50
2023-09-14T22:02:24.166Z,9.45
2023-09-14T22:05:32.482Z,9.38
2023-09-14T22:08:38.563Z,9.83
2023-09-14T22:11:43.791Z,10.38
2023-09-14T22:14:49.857Z,9.45
2023-09-14T22:17:56.333Z,10.15
2023-09-14T22:21:02.602Z,9.55
2023-09-14T22:24:11.106Z,9.73
2023-09-14T22:27:16.550Z,9.58
2023-09-14T22:30:25.401Z,10.25
2023-09-14T22:33:32.556Z,9.40
2023-09-14T22:36:37.898Z,9.65
2023-09-14T22:39:43.967Z,9.73
2023-09-14T22:42:49.611Z,9.88
2023-09-14T22:45:55.413Z,9.58
2023-09-14T22:49:01.783Z,9.80
2023-09-14T22:52:08.076Z,10.50
2023-09-14T22:55:18.063Z,9.58
2023-09-14T22:58:24.231Z,9.55
2023-09-14T23:01:32.545Z,10.28
2023-09-14T23:04:39.623Z,10.30
2023-09-14T23:07:47.215Z,10.45
2023-09-14T23:10:54.519Z,10.68
2023-09-14T23:14:00.393Z,9.80
2023-09-14T23:17:06.835Z,10.43
2023-09-14T23:20:33.541Z,10.58
2023-09-14T23:23:34.103Z,10.55
2023-09-14T23:26:42.908Z,10.23
2023-09-14T23:29:48.794Z,10.10
2023-09-14T23:32:56.106Z,12.40
2023-09-14T23:36:02.451Z,10.18
2023-09-14T23:39:07.591Z,9.70
2023-09-14T23:42:15.694Z,11.20
2023-09-14T23:45:22.684Z,11.33
2023-09-14T23:48:29.121Z,11.30
2023-09-14T23:51:35.835Z,10.20
2023-09-14T23:54:41.755Z,11.20
2023-09-14T23:57:48.104Z,11.60
